sensor_id;sensor_type;location;lat;lon;timestamp;P1;durP1;ratioP1;P2;durP2;ratioP2
6862;SDS011;3470;48.738;9.616;2023-02-28T13:36:38;6.85;;;6.15;;
6862;SDS011;3470;48.738;9.616;2023-02-28T13:39:44;7.22;;;6.53;;
6862;SDS011;3470;48.738;9.616;2023-02-28T13:47:27;6.55;;;5.90;;
6862;SDS011;3470;48.738;9.616;2023-02-28T13:50:07;8.50;;;7.30;;
6862;SDS011;3470;48.738;9.616;2023-02-28T13:52:53;8.75;;;6.90;;
6862;SDS011;3470;48.738;9.616;2023-02-28T13:55:37;7.70;;;6.47;;
6862;SDS011;3470;48.738;9.616;2023-02-28T13:58:26;7.90;;;7.10;;
6862;SDS011;3470;48.738;9.616;2023-02-28T18:08:43;14.73;;;10.43;;
6862;SDS011;3470;48.738;9.616;2023-02-28T18:11:08;13.90;;;10.07;;
6862;SDS011;3470;48.738;9.616;2023-02-28T18:13:42;13.70;;;10.17;;
6862;SDS011;3470;48.738;9.616;2023-02-28T18:54:21;15.30;;;10.50;;
6862;SDS011;3470;48.738;9.616;2023-02-28T18:56:46;16.30;;;11.30;;
6862;SDS011;3470;48.738;9.616;2023-02-28T18:59:12;13.50;;;10.80;;
6862;SDS011;3470;48.738;9.616;2023-02-28T19:01:38;15.17;;;11.43;;
6862;SDS011;3470;48.738;9.616;2023-02-28T19:04:04;14.60;;;11.43;;
6862;SDS011;3470;48.738;9.616;2023-02-28T19:06:30;19.97;;;12.10;;
6862;SDS011;3470;48.738;9.616;2023-02-28T19:08:57;16.87;;;12.00;;
6862;SDS011;3470;48.738;9.616;2023-02-28T19:11:24;19.80;;;12.50;;
6862;SDS011;3470;48.738;9.616;2023-02-28T19:13:50;17.33;;;11.80;;
6862;SDS011;3470;48.738;9.616;2023-02-28T19:16:16;15.20;;;11.50;;
6862;SDS011;3470;48.738;9.616;2023-02-28T19:18:44;16.43;;;11.63;;
6862;SDS011;3470;48.738;9.616;2023-02-28T19:21:10;17.43;;;11.90;;
6862;SDS011;3470;48.738;9.616;2023-02-28T19:23:38;15.33;;;11.30;;
6862;SDS011;3470;48.738;9.616;2023-02-28T19:26:21;17.50;;;11.90;;
6862;SDS011;3470;48.738;9.616;2023-02-28T19:28:48;17.37;;;12.60;;
6862;SDS011;3470;48.738;9.616;2023-02-28T19:31:17;17.93;;;12.50;;
6862;SDS011;3470;48.738;9.616;2023-02-28T19:33:44;17.00;;;12.03;;
6862;SDS011;3470;48.738;9.616;2023-02-28T19:36:10;18.40;;;12.70;;
6862;SDS011;3470;48.738;9.616;2023-02-28T19:38:37;18.17;;;12.23;;
6862;SDS011;3470;48.738;9.616;2023-02-28T19:41:04;17.47;;;12.43;;
6862;SDS011;3470;48.738;9.616;2023-02-28T19:43:31;17.20;;;12.33;;
6862;SDS011;3470;48.738;9.616;2023-02-28T19:45:57;17.00;;;12.17;;
6862;SDS011;3470;48.738;9.616;2023-02-28T19:48:23;16.87;;;11.90;;
6862;SDS011;3470;48.738;9.616;2023-02-28T19:50:54;15.60;;;11.70;;
6862;SDS011;3470;48.738;9.616;2023-02-28T19:53:21;16.37;;;12.07;;
6862;SDS011;3470;48.738;9.616;2023-02-28T19:55:47;16.00;;;11.90;;
6862;SDS011;3470;48.738;9.616;2023-02-28T19:58:12;19.13;;;12.93;;
6862;SDS011;3470;48.738;9.616;2023-02-28T20:00:39;16.43;;;12.07;;
6862;SDS011;3470;48.738;9.616;2023-02-28T20:03:05;18.30;;;13.10;;
6862;SDS011;3470;48.738;9.616;2023-02-28T20:05:31;15.87;;;12.17;;
6862;SDS011;3470;48.738;9.616;2023-02-28T20:07:57;18.17;;;12.27;;
6862;SDS011;3470;48.738;9.616;2023-02-28T20:10:23;18.63;;;12.77;;
6862;SDS011;3470;48.738;9.616;2023-02-28T20:12:48;19.33;;;12.47;;
6862;SDS011;3470;48.738;9.616;2023-02-28T20:15:14;18.70;;;12.77;;
6862;SDS011;3470;48.738;9.616;2023-02-28T20:17:40;18.20;;;12.23;;
6862;SDS011;3470;48.738;9.616;2023-02-28T20:20:07;19.03;;;13.43;;
6862;SDS011;3470;48.738;9.616;2023-02-28T20:22:35;15.83;;;11.73;;
6862;SDS011;3470;48.738;9.616;2023-02-28T20:25:02;16.63;;;12.73;;
6862;SDS011;3470;48.738;9.616;2023-02-28T20:27:28;19.40;;;12.90;;
6862;SDS011;3470;48.738;9.616;2023-02-28T20:29:53;16.17;;;12.73;;
6862;SDS011;3470;48.738;9.616;2023-02-28T20:32:19;16.97;;;12.43;;
6862;SDS011;3470;48.738;9.616;2023-02-28T20:34:44;19.40;;;12.87;;
6862;SDS011;3470;48.738;9.616;2023-02-28T20:37:10;22.53;;;12.70;;
6862;SDS011;3470;48.738;9.616;2023-02-28T20:39:36;19.67;;;13.87;;
6862;SDS011;3470;48.738;9.616;2023-02-28T20:42:01;17.40;;;11.97;;
6862;SDS011;3470;48.738;9.616;2023-02-28T20:44:27;23.53;;;13.93;;
6862;SDS011;3470;48.738;9.616;2023-02-28T20:46:53;18.23;;;12.53;;
6862;SDS011;3470;48.738;9.616;2023-02-28T20:49:18;17.90;;;12.30;;
6862;SDS011;3470;48.738;9.616;2023-02-28T20:51:44;19.97;;;14.00;;
6862;SDS011;3470;48.738;9.616;2023-02-28T20:54:09;17.80;;;12.97;;
6862;SDS011;3470;48.738;9.616;2023-02-28T20:56:35;18.27;;;13.30;;
6862;SDS011;3470;48.738;9.616;2023-02-28T20:59:02;18.63;;;13.20;;
6862;SDS011;3470;48.738;9.616;2023-02-28T21:01:28;21.30;;;13.00;;
6862;SDS011;3470;48.738;9.616;2023-02-28T21:03:56;21.73;;;14.17;;
6862;SDS011;3470;48.738;9.616;2023-02-28T21:06:23;18.73;;;12.83;;
6862;SDS011;3470;48.738;9.616;2023-02-28T21:08:52;18.80;;;13.27;;
6862;SDS011;3470;48.738;9.616;2023-02-28T21:11:19;19.00;;;13.00;;
6862;SDS011;3470;48.738;9.616;2023-02-28T21:13:47;19.87;;;13.57;;
6862;SDS011;3470;48.738;9.616;2023-02-28T21:16:16;20.30;;;13.93;;
6862;SDS011;3470;48.738;9.616;2023-02-28T21:18:45;20.07;;;12.93;;
6862;SDS011;3470;48.738;9.616;2023-02-28T21:21:15;19.47;;;12.90;;
6862;SDS011;3470;48.738;9.616;2023-02-28T21:23:43;19.23;;;13.67;;
6862;SDS011;3470;48.738;9.616;2023-02-28T21:26:12;17.00;;;13.00;;
6862;SDS011;3470;48.738;9.616;2023-02-28T21:28:41;16.97;;;12.10;;
6862;SDS011;3470;48.738;9.616;2023-02-28T21:31:09;22.83;;;13.90;;
6862;SDS011;3470;48.738;9.616;2023-02-28T21:33:37;21.77;;;13.70;;
6862;SDS011;3470;48.738;9.616;2023-02-28T21:36:07;19.67;;;13.07;;
6862;SDS011;3470;48.738;9.616;2023-02-28T21:38:35;20.20;;;13.73;;
6862;SDS011;3470;48.738;9.616;2023-02-28T21:41:03;23.33;;;13.23;;
6862;SDS011;3470;48.738;9.616;2023-02-28T21:43:32;17.93;;;12.30;;
6862;SDS011;3470;48.738;9.616;2023-02-28T21:46:02;18.87;;;12.83;;
6862;SDS011;3470;48.738;9.616;2023-02-28T21:48:29;19.10;;;13.73;;
6862;SDS011;3470;48.738;9.616;2023-02-28T21:50:55;18.87;;;13.33;;
6862;SDS011;3470;48.738;9.616;2023-02-28T21:53:26;19.03;;;13.07;;
6862;SDS011;3470;48.738;9.616;2023-02-28T21:55:59;19.40;;;13.13;;
6862;SDS011;3470;48.738;9.616;2023-02-28T21:58:25;21.80;;;13.93;;
6862;SDS011;3470;48.738;9.616;2023-02-28T22:00:51;24.27;;;13.90;;
6862;SDS011;3470;48.738;9.616;2023-02-28T22:03:16;20.83;;;13.67;;
6862;SDS011;3470;48.738;9.616;2023-02-28T22:05:42;20.47;;;14.43;;
6862;SDS011;3470;48.738;9.616;2023-02-28T22:08:07;19.23;;;13.20;;
6862;SDS011;3470;48.738;9.616;2023-02-28T22:10:33;19.90;;;13.57;;
6862;SDS011;3470;48.738;9.616;2023-02-28T22:13:00;19.97;;;14.63;;
6862;SDS011;3470;48.738;9.616;2023-02-28T22:15:27;21.13;;;14.13;;
6862;SDS011;3470;48.738;9.616;2023-02-28T22:17:59;18.57;;;14.13;;
6862;SDS011;3470;48.738;9.616;2023-02-28T22:20:25;22.77;;;14.00;;
6862;SDS011;3470;48.738;9.616;2023-02-28T22:22:50;19.97;;;13.87;;
6862;SDS011;3470;48.738;9.616;2023-02-28T22:25:16;21.03;;;13.70;;
6862;SDS011;3470;48.738;9.616;2023-02-28T22:27:42;21.33;;;13.83;;
6862;SDS011;3470;48.738;9.616;2023-02-28T22:30:08;19.23;;;13.57;;
6862;SDS011;3470;48.738;9.616;2023-02-28T22:32:34;19.83;;;13.20;;
6862;SDS011;3470;48.738;9.616;2023-02-28T22:35:00;19.33;;;13.83;;
6862;SDS011;3470;48.738;9.616;2023-02-28T22:37:25;19.97;;;14.73;;
6862;SDS011;3470;48.738;9.616;2023-02-28T22:39:51;21.07;;;13.90;;
6862;SDS011;3470;48.738;9.616;2023-02-28T22:42:16;20.00;;;14.00;;
6862;SDS011;3470;48.738;9.616;2023-02-28T22:44:42;19.20;;;14.23;;
6862;SDS011;3470;48.738;9.616;2023-02-28T22:47:10;22.43;;;14.27;;
6862;SDS011;3470;48.738;9.616;2023-02-28T22:49:36;22.50;;;15.10;;
6862;SDS011;3470;48.738;9.616;2023-02-28T22:52:02;22.93;;;14.37;;
6862;SDS011;3470;48.738;9.616;2023-02-28T22:54:28;22.77;;;15.57;;
6862;SDS011;3470;48.738;9.616;2023-02-28T22:56:54;23.17;;;14.80;;
6862;SDS011;3470;48.738;9.616;2023-02-28T22:59:20;20.87;;;14.17;;
6862;SDS011;3470;48.738;9.616;2023-02-28T23:01:46;19.37;;;14.33;;
6862;SDS011;3470;48.738;9.616;2023-02-28T23:04:11;20.80;;;14.43;;
6862;SDS011;3470;48.738;9.616;2023-02-28T23:06:38;23.37;;;15.03;;
6862;SDS011;3470;48.738;9.616;2023-02-28T23:09:17;23.50;;;14.97;;
6862;SDS011;3470;48.738;9.616;2023-02-28T23:11:46;23.50;;;14.47;;
6862;SDS011;3470;48.738;9.616;2023-02-28T23:14:13;18.87;;;13.63;;
6862;SDS011;3470;48.738;9.616;2023-02-28T23:16:48;21.67;;;15.33;;
6862;SDS011;3470;48.738;9.616;2023-02-28T23:19:16;21.13;;;14.50;;
6862;SDS011;3470;48.738;9.616;2023-02-28T23:21:48;22.33;;;14.17;;
6862;SDS011;3470;48.738;9.616;2023-02-28T23:24:15;20.27;;;14.37;;
6862;SDS011;3470;48.738;9.616;2023-02-28T23:26:45;22.90;;;15.13;;
6862;SDS011;3470;48.738;9.616;2023-02-28T23:29:13;22.27;;;15.07;;
6862;SDS011;3470;48.738;9.616;2023-02-28T23:31:40;23.10;;;15.07;;
6862;SDS011;3470;48.738;9.616;2023-02-28T23:34:06;22.87;;;15.33;;
6862;SDS011;3470;48.738;9.616;2023-02-28T23:36:31;22.30;;;15.37;;
6862;SDS011;3470;48.738;9.616;2023-02-28T23:38:57;23.30;;;15.07;;
6862;SDS011;3470;48.738;9.616;2023-02-28T23:41:23;24.43;;;16.03;;
6862;SDS011;3470;48.738;9.616;2023-02-28T23:43:49;22.23;;;15.10;;
6862;SDS011;3470;48.738;9.616;2023-02-28T23:46:16;23.87;;;15.73;;
6862;SDS011;3470;48.738;9.616;2023-02-28T23:48:42;26.97;;;16.10;;
6862;SDS011;3470;48.738;9.616;2023-02-28T23:51:12;25.77;;;15.10;;
6862;SDS011;3470;48.738;9.616;2023-02-28T23:53:41;21.47;;;14.47;;
6862;SDS011;3470;48.738;9.616;2023-02-28T23:56:09;23.80;;;16.03;;
6862;SDS011;3470;48.738;9.616;2023-02-28T23:58:38;24.47;;;15.37;;
